sensor_id;sensor_type;location;lat;lon;timestamp;pressure;altitude;pressure_sealevel;temperature;humidity
49835;BME280;35729;52.090;13.162;2022-12-11T00:01:16;100589.66;;;-3.45;87.49
49835;BME280;35729;52.090;13.162;2022-12-11T00:03:45;100589.72;;;-3.43;87.88
49835;BME280;35729;52.090;13.162;2022-12-11T00:06:16;100584.66;;;-3.40;88.79
49835;BME280;35729;52.090;13.162;2022-12-11T00:08:45;100588.22;;;-3.36;87.85
49835;BME280;35729;52.090;13.162;2022-12-11T00:11:15;100588.97;;;-3.39;85.91
49835;BME280;35729;52.090;13.162;2022-12-11T00:13:43;100583.72;;;-3.44;86.22
49835;BME280;35729;52.090;13.162;2022-12-11T00:16:14;100581.03;;;-3.47;86.10
49835;BME280;35729;52.090;13.162;2022-12-11T00:18:43;100580.13;;;-3.49;86.63
49835;BME280;35729;52.090;13.162;2022-12-11T00:21:13;100587.75;;;-3.50;86.25
49835;BME280;35729;52.090;13.162;2022-12-11T00:23:41;100587.72;;;-3.52;86.50
49835;BME280;35729;52.090;13.162;2022-12-11T00:26:12;100586.91;;;-3.51;87.59
49835;BME280;35729;52.090;13.162;2022-12-11T00:28:41;100580.94;;;-3.50;87.83
49835;BME280;35729;52.090;13.162;2022-12-11T00:31:16;100585.31;;;-3.47;87.37
49835;BME280;35729;52.090;13.162;2022-12-11T00:33:45;100575.09;;;-3.46;86.67
49835;BME280;35729;52.090;13.162;2022-12-11T00:36:16;100581.84;;;-3.48;86.67
49835;BME280;35729;52.090;13.162;2022-12-11T00:38:45;100579.19;;;-3.51;85.88
49835;BME280;35729;52.090;13.162;2022-12-11T00:41:13;100574.03;;;-3.52;86.77
49835;BME280;35729;52.090;13.162;2022-12-11T00:43:42;100565.25;;;-3.59;85.84
49835;BME280;35729;52.090;13.162;2022-12-11T00:46:11;100571.34;;;-3.55;87.32
49835;BME280;35729;52.090;13.162;2022-12-11T00:48:42;100577.19;;;-3.60;84.08
49835;BME280;35729;52.090;13.162;2022-12-11T00:51:12;100570.28;;;-3.62;85.71
49835;BME280;35729;52.090;13.162;2022-12-11T00:53:41;100572.63;;;-3.68;83.64
49835;BME280;35729;52.090;13.162;2022-12-11T00:56:12;100582.16;;;-3.64;86.20
49835;BME280;35729;52.090;13.162;2022-12-11T00:58:40;100589.03;;;-3.63;86.53
49835;BME280;35729;52.090;13.162;2022-12-11T01:01:10;100582.28;;;-3.61;87.63
49835;BME280;35729;52.090;13.162;2022-12-11T01:03:42;100565.09;;;-3.64;87.34
49835;BME280;35729;52.090;13.162;2022-12-11T01:06:13;100576.38;;;-3.58;86.28
49835;BME280;35729;52.090;13.162;2022-12-11T01:08:43;100579.78;;;-3.60;85.03
49835;BME280;35729;52.090;13.162;2022-12-11T01:11:14;100576.28;;;-3.62;86.31
49835;BME280;35729;52.090;13.162;2022-12-11T01:13:40;100574.56;;;-3.63;85.28
49835;BME280;35729;52.090;13.162;2022-12-11T01:16:11;100573.66;;;-3.63;85.51
49835;BME280;35729;52.090;13.162;2022-12-11T01:18:43;100579.59;;;-3.64;85.90
49835;BME280;35729;52.090;13.162;2022-12-11T01:21:12;100590.75;;;-3.64;84.98
49835;BME280;35729;52.090;13.162;2022-12-11T01:23:41;100577.13;;;-3.63;85.97
49835;BME280;35729;52.090;13.162;2022-12-11T01:26:11;100578.84;;;-3.62;86.70
49835;BME280;35729;52.090;13.162;2022-12-11T01:28:41;100581.53;;;-3.58;87.53
49835;BME280;35729;52.090;13.162;2022-12-11T01:31:10;100582.41;;;-3.56;87.95
49835;BME280;35729;52.090;13.162;2022-12-11T01:33:43;100584.22;;;-3.54;88.02
49835;BME280;35729;52.090;13.162;2022-12-11T01:36:14;100581.75;;;-3.51;88.07
49835;BME280;35729;52.090;13.162;2022-12-11T01:38:43;100564.47;;;-3.56;87.10
49835;BME280;35729;52.090;13.162;2022-12-11T01:41:12;100562.88;;;-3.53;87.51
49835;BME280;35729;52.090;13.162;2022-12-11T01:44:01;100571.47;;;-3.52;86.35
49835;BME280;35729;52.090;13.162;2022-12-11T01:46:32;100582.50;;;-3.55;85.58
49835;BME280;35729;52.090;13.162;2022-12-11T01:49:07;100575.50;;;-3.59;85.34
49835;BME280;35729;52.090;13.162;2022-12-11T01:51:40;100573.66;;;-3.63;85.71
49835;BME280;35729;52.090;13.162;2022-12-11T01:54:11;100576.28;;;-3.62;86.70
49835;BME280;35729;52.090;13.162;2022-12-11T01:56:42;100570.28;;;-3.62;86.70
49835;BME280;35729;52.090;13.162;2022-12-11T01:59:13;100571.13;;;-3.62;86.27
49835;BME280;35729;52.090;13.162;2022-12-11T02:01:46;100572.03;;;-3.61;85.49
49835;BME280;35729;52.090;13.162;2022-12-11T02:04:19;100572.84;;;-3.62;86.27
49835;BME280;35729;52.090;13.162;2022-12-11T02:06:49;100570.28;;;-3.62;86.02
49835;BME280;35729;52.090;13.162;2022-12-11T02:09:20;100576.22;;;-3.63;85.26
49835;BME280;35729;52.090;13.162;2022-12-11T02:11:54;100575.28;;;-3.65;85.50
49835;BME280;35729;52.090;13.162;2022-12-11T02:14:31;100569.25;;;-3.67;85.58
49835;BME280;35729;52.090;13.162;2022-12-11T02:17:04;100569.13;;;-3.70;86.30
49835;BME280;35729;52.090;13.162;2022-12-11T02:19:52;100570.16;;;-3.65;86.43
49835;BME280;35729;52.090;13.162;2022-12-11T02:22:37;100575.28;;;-3.65;86.66
49835;BME280;35729;52.090;13.162;2022-12-11T02:25:15;100579.56;;;-3.66;85.58
49835;BME280;35729;52.090;13.162;2022-12-11T02:27:51;100579.59;;;-3.64;86.23
49835;BME280;35729;52.090;13.162;2022-12-11T02:30:24;100573.63;;;-3.65;85.37
49835;BME280;35729;52.090;13.162;2022-12-11T02:32:55;100569.31;;;-3.66;86.27
49835;BME280;35729;52.090;13.162;2022-12-11T02:35:29;100568.44;;;-3.66;86.22
49835;BME280;35729;52.090;13.162;2022-12-11T02:38:01;100565.03;;;-3.65;86.23
49835;BME280;35729;52.090;13.162;2022-12-11T02:40:34;100569.34;;;-3.64;87.67
49835;BME280;35729;52.090;13.162;2022-12-11T02:43:06;100576.22;;;-3.63;87.85
49835;BME280;35729;52.090;13.162;2022-12-11T02:45:40;100571.13;;;-3.62;87.17
49835;BME280;35729;52.090;13.162;2022-12-11T02:48:10;100569.56;;;-3.58;87.90
49835;BME280;35729;52.090;13.162;2022-12-11T02:50:45;100570.44;;;-3.57;88.57
49835;BME280;35729;52.090;13.162;2022-12-11T02:53:18;100562.78;;;-3.56;88.64
49835;BME280;35729;52.090;13.162;2022-12-11T02:55:52;100567.09;;;-3.55;87.58
49835;BME280;35729;52.090;13.162;2022-12-11T02:58:25;100568.78;;;-3.55;88.18
49835;BME280;35729;52.090;13.162;2022-12-11T03:00:58;100562.75;;;-3.57;87.65
49835;BME280;35729;52.090;13.162;2022-12-11T03:03:28;100572.13;;;-3.58;87.01
49835;BME280;35729;52.090;13.162;2022-12-11T03:05:57;100558.41;;;-3.60;85.63
49835;BME280;35729;52.090;13.162;2022-12-11T03:08:25;100564.28;;;-3.63;86.24
49835;BME280;35729;52.090;13.162;2022-12-11T03:10:54;100567.59;;;-3.65;85.75
49835;BME280;35729;52.090;13.162;2022-12-11T03:13:23;100563.31;;;-3.66;86.55
49835;BME280;35729;52.090;13.162;2022-12-11T03:16:06;100563.19;;;-3.69;88.00
49835;BME280;35729;52.090;13.162;2022-12-11T03:18:40;100564.19;;;-3.66;88.27
49835;BME280;35729;52.090;13.162;2022-12-11T03:21:14;100566.00;;;-3.62;88.50
49835;BME280;35729;52.090;13.162;2022-12-11T03:23:48;100565.25;;;-3.59;87.59
49835;BME280;35729;52.090;13.162;2022-12-11T03:26:19;100555.75;;;-3.62;88.65
49835;BME280;35729;52.090;13.162;2022-12-11T03:28:52;100568.81;;;-3.54;88.09
49835;BME280;35729;52.090;13.162;2022-12-11T03:31:28;100563.59;;;-3.57;86.55
49835;BME280;35729;52.090;13.162;2022-12-11T03:34:02;100562.69;;;-3.59;86.41
49835;BME280;35729;52.090;13.162;2022-12-11T03:36:38;100565.31;;;-3.57;87.06
49835;BME280;35729;52.090;13.162;2022-12-11T03:39:09;100561.84;;;-3.58;88.34
49835;BME280;35729;52.090;13.162;2022-12-11T03:41:41;100561.84;;;-3.58;86.45
49835;BME280;35729;52.090;13.162;2022-12-11T03:44:11;100561.00;;;-3.58;87.53
49835;BME280;35729;52.090;13.162;2022-12-11T03:46:44;100560.09;;;-3.59;87.92
49835;BME280;35729;52.090;13.162;2022-12-11T03:49:16;100564.41;;;-3.58;87.93
49835;BME280;35729;52.090;13.162;2022-12-11T03:51:48;100557.53;;;-3.59;88.25
49835;BME280;35729;52.090;13.162;2022-12-11T03:54:19;100566.22;;;-3.55;88.32
49835;BME280;35729;52.090;13.162;2022-12-11T03:56:50;100569.66;;;-3.55;87.07
49835;BME280;35729;52.090;13.162;2022-12-11T03:59:20;100561.13;;;-3.54;87.72
49835;BME280;35729;52.090;13.162;2022-12-11T04:01:51;100560.31;;;-3.53;89.13
49835;BME280;35729;52.090;13.162;2022-12-11T04:04:20;100560.38;;;-3.51;88.33
49835;BME280;35729;52.090;13.162;2022-12-11T04:06:48;100556.16;;;-3.49;88.08
49835;BME280;35729;52.090;13.162;2022-12-11T04:09:17;100554.38;;;-3.52;87.51
49835;BME280;35729;52.090;13.162;2022-12-11T04:11:45;100554.41;;;-3.50;88.03
49835;BME280;35729;52.090;13.162;2022-12-11T04:14:14;100556.16;;;-3.49;89.14
49835;BME280;35729;52.090;13.162;2022-12-11T04:16:59;100560.47;;;-3.48;89.00
49835;BME280;35729;52.090;13.162;2022-12-11T04:19:27;100561.34;;;-3.48;87.63
49835;BME280;35729;52.090;13.162;2022-12-11T04:22:09;100564.75;;;-3.49;87.37
49835;BME280;35729;52.090;13.162;2022-12-11T04:24:53;100569.00;;;-3.49;88.20
49835;BME280;35729;52.090;13.162;2022-12-11T04:27:21;100560.44;;;-3.50;89.00
49835;BME280;35729;52.090;13.162;2022-12-11T04:30:03;100553.59;;;-3.49;89.48
49835;BME280;35729;52.090;13.162;2022-12-11T04:32:34;100563.03;;;-3.48;90.24
49835;BME280;35729;52.090;13.162;2022-12-11T04:35:05;100558.88;;;-3.45;90.19
49835;BME280;35729;52.090;13.162;2022-12-11T04:37:34;100546.91;;;-3.44;89.57
49835;BME280;35729;52.090;13.162;2022-12-11T04:40:05;100546.09;;;-3.43;89.77
49835;BME280;35729;52.090;13.162;2022-12-11T04:42:33;100553.84;;;-3.41;89.32
49835;BME280;35729;52.090;13.162;2022-12-11T04:45:03;100549.53;;;-3.42;88.56
49835;BME280;35729;52.090;13.162;2022-12-11T04:47:36;100558.88;;;-3.45;88.69
49835;BME280;35729;52.090;13.162;2022-12-11T04:50:13;100561.25;;;-3.51;86.13
49835;BME280;35729;52.090;13.162;2022-12-11T04:52:42;100556.78;;;-3.56;86.66
49835;BME280;35729;52.090;13.162;2022-12-11T04:55:11;100555.84;;;-3.60;87.32
49835;BME280;35729;52.090;13.162;2022-12-11T04:57:40;100559.22;;;-3.61;88.03
49835;BME280;35729;52.090;13.162;2022-12-11T05:00:11;100553.97;;;-3.64;87.09
49835;BME280;35729;52.090;13.162;2022-12-11T05:02:42;100552.97;;;-3.68;86.80
49835;BME280;35729;52.090;13.162;2022-12-11T05:05:10;100548.69;;;-3.69;87.55
49835;BME280;35729;52.090;13.162;2022-12-11T05:07:39;100544.44;;;-3.68;88.23
49835;BME280;35729;52.090;13.162;2022-12-11T05:10:08;100539.34;;;-3.67;87.95
49835;BME280;35729;52.090;13.162;2022-12-11T05:12:37;100547.09;;;-3.65;87.52
49835;BME280;35729;52.090;13.162;2022-12-11T05:15:06;100550.59;;;-3.63;89.65
49835;BME280;35729;52.090;13.162;2022-12-11T05:17:35;100549.78;;;-3.62;87.41
49835;BME280;35729;52.090;13.162;2022-12-11T05:20:07;100548.91;;;-3.63;88.45
49835;BME280;35729;52.090;13.162;2022-12-11T05:22:37;100550.63;;;-3.62;88.15
49835;BME280;35729;52.090;13.162;2022-12-11T05:25:06;100545.41;;;-3.65;86.46
49835;BME280;35729;52.090;13.162;2022-12-11T05:27:35;100542.81;;;-3.66;86.44
49835;BME280;35729;52.090;13.162;2022-12-11T05:30:05;100543.66;;;-3.66;88.89
49835;BME280;35729;52.090;13.162;2022-12-11T05:32:34;100534.38;;;-3.62;89.32
49835;BME280;35729;52.090;13.162;2022-12-11T05:35:06;100543.81;;;-3.61;87.98
49835;BME280;35729;52.090;13.162;2022-12-11T05:37:35;100537.00;;;-3.61;88.79
49835;BME280;35729;52.090;13.162;2022-12-11T05:40:04;100538.78;;;-3.58;89.42
49835;BME280;35729;52.090;13.162;2022-12-11T05:42:33;100534.59;;;-3.56;87.90
49835;BME280;35729;52.090;13.162;2022-12-11T05:45:03;100532.03;;;-3.56;89.43
49835;BME280;35729;52.090;13.162;2022-12-11T05:47:32;100536.38;;;-3.53;89.64
49835;BME280;35729;52.090;13.162;2022-12-11T05:50:00;100531.28;;;-3.52;88.77
49835;BME280;35729;52.090;13.162;2022-12-11T05:52:33;100526.16;;;-3.52;88.65
49835;BME280;35729;52.090;13.162;2022-12-11T05:55:01;100523.56;;;-3.53;88.12
49835;BME280;35729;52.090;13.162;2022-12-11T05:57:30;100515.91;;;-3.52;89.00
49835;BME280;35729;52.090;13.162;2022-12-11T05:59:58;100518.50;;;-3.50;89.89
49835;BME280;35729;52.090;13.162;2022-12-11T06:02:26;100518.56;;;-3.49;89.66
49835;BME280;35729;52.090;13.162;2022-12-11T06:04:55;100514.31;;;-3.48;89.29
49835;BME280;35729;52.090;13.162;2022-12-11T06:07:23;100509.19;;;-3.48;89.96
49835;BME280;35729;52.090;13.162;2022-12-11T06:09:55;100505.84;;;-3.46;89.60
49835;BME280;35729;52.090;13.162;2022-12-11T06:12:23;100503.22;;;-3.47;88.25
49835;BME280;35729;52.090;13.162;2022-12-11T06:14:52;100504.88;;;-3.49;88.98
49835;BME280;35729;52.090;13.162;2022-12-11T06:17:21;100502.28;;;-3.49;89.01
49835;BME280;35729;52.090;13.162;2022-12-11T06:19:49;100505.69;;;-3.50;88.85
49835;BME280;35729;52.090;13.162;2022-12-11T06:22:18;100504.88;;;-3.49;88.98
49835;BME280;35729;52.090;13.162;2022-12-11T06:24:46;100504.81;;;-3.51;88.62
49835;BME280;35729;52.090;13.162;2022-12-11T06:27:17;100511.59;;;-3.53;89.10
49835;BME280;35729;52.090;13.162;2022-12-11T06:29:46;100505.63;;;-3.52;89.74
49835;BME280;35729;52.090;13.162;2022-12-11T06:32:15;100517.53;;;-3.54;88.50
49835;BME280;35729;52.090;13.162;2022-12-11T06:34:43;100506.41;;;-3.54;88.99
49835;BME280;35729;52.090;13.162;2022-12-11T06:37:12;100516.63;;;-3.56;89.56
49835;BME280;35729;52.090;13.162;2022-12-11T06:39:40;100507.22;;;-3.55;89.76
49835;BME280;35729;52.090;13.162;2022-12-11T06:42:09;100506.41;;;-3.54;89.48
49835;BME280;35729;52.090;13.162;2022-12-11T06:44:40;100515.81;;;-3.55;89.41
49835;BME280;35729;52.090;13.162;2022-12-11T06:47:09;100516.66;;;-3.54;90.41
49835;BME280;35729;52.090;13.162;2022-12-11T06:49:37;100520.94;;;-3.55;89.51
49835;BME280;35729;52.090;13.162;2022-12-11T06:52:05;100524.38;;;-3.54;90.70
49835;BME280;35729;52.090;13.162;2022-12-11T06:54:34;100521.03;;;-3.52;90.72
49835;BME280;35729;52.090;13.162;2022-12-11T06:57:02;100524.47;;;-3.51;89.88
49835;BME280;35729;52.090;13.162;2022-12-11T06:59:31;100518.41;;;-3.53;89.55
49835;BME280;35729;52.090;13.162;2022-12-11T07:02:03;100511.59;;;-3.53;90.84
49835;BME280;35729;52.090;13.162;2022-12-11T07:04:31;100515.91;;;-3.52;91.31
49835;BME280;35729;52.090;13.162;2022-12-11T07:07:00;100512.50;;;-3.51;89.85
49835;BME280;35729;52.090;13.162;2022-12-11T07:09:28;100512.47;;;-3.52;88.82
49835;BME280;35729;52.090;13.162;2022-12-11T07:11:57;100515.03;;;-3.52;89.36
49835;BME280;35729;52.090;13.162;2022-12-11T07:14:25;100505.59;;;-3.53;90.20
49835;BME280;35729;52.090;13.162;2022-12-11T07:16:54;100513.28;;;-3.53;90.16
49835;BME280;35729;52.090;13.162;2022-12-11T07:19:25;100519.28;;;-3.53;89.55
49835;BME280;35729;52.090;13.162;2022-12-11T07:21:53;100516.72;;;-3.53;90.03
49835;BME280;35729;52.090;13.162;2022-12-11T07:24:22;100532.19;;;-3.51;89.29
49835;BME280;35729;52.090;13.162;2022-12-11T07:26:50;100533.84;;;-3.52;89.88
49835;BME280;35729;52.090;13.162;2022-12-11T07:29:20;100534.66;;;-3.53;89.18
49835;BME280;35729;52.090;13.162;2022-12-11T07:31:48;100538.00;;;-3.55;88.44
49835;BME280;35729;52.090;13.162;2022-12-11T07:34:16;100529.41;;;-3.57;88.68
49835;BME280;35729;52.090;13.162;2022-12-11T07:36:48;100534.53;;;-3.57;88.96
49835;BME280;35729;52.090;13.162;2022-12-11T07:39:16;100534.59;;;-3.56;89.46
49835;BME280;35729;52.090;13.162;2022-12-11T07:41:44;100535.34;;;-3.58;87.27
49835;BME280;35729;52.090;13.162;2022-12-11T07:44:13;100529.44;;;-3.56;88.35
49835;BME280;35729;52.090;13.162;2022-12-11T07:46:42;100532.84;;;-3.57;87.74
49835;BME280;35729;52.090;13.162;2022-12-11T07:49:10;100529.44;;;-3.56;87.90
49835;BME280;35729;52.090;13.162;2022-12-11T07:51:39;100532.03;;;-3.56;88.21
49835;BME280;35729;52.090;13.162;2022-12-11T07:54:13;100529.50;;;-3.54;88.62
49835;BME280;35729;52.090;13.162;2022-12-11T07:56:42;100529.53;;;-3.53;88.69
49835;BME280;35729;52.090;13.162;2022-12-11T07:59:10;100532.06;;;-3.54;87.88
49835;BME280;35729;52.090;13.162;2022-12-11T08:01:39;100541.38;;;-3.56;86.56
49835;BME280;35729;52.090;13.162;2022-12-11T08:04:10;100537.09;;;-3.57;87.64
49835;BME280;35729;52.090;13.162;2022-12-11T08:06:41;100538.91;;;-3.55;88.63
49835;BME280;35729;52.090;13.162;2022-12-11T08:09:12;100544.03;;;-3.55;87.04
49835;BME280;35729;52.090;13.162;2022-12-11T08:11:41;100544.88;;;-3.54;86.24
49835;BME280;35729;52.090;13.162;2022-12-11T08:14:10;100538.16;;;-3.51;88.43
49835;BME280;35729;52.090;13.162;2022-12-11T08:16:38;100545.91;;;-3.49;87.65
49835;BME280;35729;52.090;13.162;2022-12-11T08:19:08;100540.88;;;-3.46;86.97
49835;BME280;35729;52.090;13.162;2022-12-11T08:21:37;100531.56;;;-3.42;88.60
49835;BME280;35729;52.090;13.162;2022-12-11T08:24:06;100543.56;;;-3.41;86.95
49835;BME280;35729;52.090;13.162;2022-12-11T08:26:38;100538.56;;;-3.38;88.61
49835;BME280;35729;52.090;13.162;2022-12-11T08:29:06;100538.56;;;-3.38;85.79
49835;BME280;35729;52.090;13.162;2022-12-11T08:31:35;100536.03;;;-3.37;88.00
49835;BME280;35729;52.090;13.162;2022-12-11T08:34:04;100536.91;;;-3.36;88.19
49835;BME280;35729;52.090;13.162;2022-12-11T08:36:32;100541.25;;;-3.34;88.19
49835;BME280;35729;52.090;13.162;2022-12-11T08:39:00;100537.88;;;-3.33;87.02
49835;BME280;35729;52.090;13.162;2022-12-11T08:41:29;100530.16;;;-3.33;88.24
49835;BME280;35729;52.090;13.162;2022-12-11T08:44:00;100526.88;;;-3.29;88.08
49835;BME280;35729;52.090;13.162;2022-12-11T08:46:30;100527.72;;;-3.30;86.05
49835;BME280;35729;52.090;13.162;2022-12-11T08:48:59;100516.47;;;-3.33;86.97
49835;BME280;35729;52.090;13.162;2022-12-11T08:51:29;100524.31;;;-3.29;88.08
49835;BME280;35729;52.090;13.162;2022-12-11T08:54:03;100532.97;;;-3.25;88.37
49835;BME280;35729;52.090;13.162;2022-12-11T08:56:32;100539.03;;;-3.23;87.76
49835;BME280;35729;52.090;13.162;2022-12-11T08:59:03;100531.25;;;-3.26;85.26
49835;BME280;35729;52.090;13.162;2022-12-11T09:01:31;100538.94;;;-3.26;87.19
49835;BME280;35729;52.090;13.162;2022-12-11T09:04:00;100537.25;;;-3.25;86.32
49835;BME280;35729;52.090;13.162;2022-12-11T09:06:31;100540.75;;;-3.23;86.78
49835;BME280;35729;52.090;13.162;2022-12-11T09:09:00;100540.66;;;-3.25;86.83
49835;BME280;35729;52.090;13.162;2022-12-11T09:11:31;100544.97;;;-3.24;87.59
49835;BME280;35729;52.090;13.162;2022-12-11T09:14:03;100541.63;;;-3.21;88.20
49835;BME280;35729;52.090;13.162;2022-12-11T09:16:32;100538.25;;;-3.20;86.36
49835;BME280;35729;52.090;13.162;2022-12-11T09:19:02;100537.44;;;-3.19;85.90
49835;BME280;35729;52.090;13.162;2022-12-11T09:21:33;100535.69;;;-3.20;86.48
49835;BME280;35729;52.090;13.162;2022-12-11T09:24:02;100525.28;;;-3.25;83.71
49835;BME280;35729;52.090;13.162;2022-12-11T09:26:31;100530.47;;;-3.23;85.28
49835;BME280;35729;52.090;13.162;2022-12-11T09:29:04;100528.78;;;-3.23;85.55
49835;BME280;35729;52.090;13.162;2022-12-11T09:31:34;100527.94;;;-3.22;85.37
49835;BME280;35729;52.090;13.162;2022-12-11T09:34:05;100521.03;;;-3.24;84.48
49835;BME280;35729;52.090;13.162;2022-12-11T09:36:34;100521.13;;;-3.21;85.47
49835;BME280;35729;52.090;13.162;2022-12-11T09:39:04;100521.16;;;-3.20;85.59
49835;BME280;35729;52.090;13.162;2022-12-11T09:41:47;100522.09;;;-3.18;86.58
49835;BME280;35729;52.090;13.162;2022-12-11T09:44:30;100521.31;;;-3.15;85.39
49835;BME280;35729;52.090;13.162;2022-12-11T09:47:00;100519.72;;;-3.12;85.65
49835;BME280;35729;52.090;13.162;2022-12-11T09:49:34;100517.13;;;-3.12;85.99
49835;BME280;35729;52.090;13.162;2022-12-11T09:52:10;100515.50;;;-3.09;86.10
49835;BME280;35729;52.090;13.162;2022-12-11T09:54:44;100520.63;;;-3.09;85.64
49835;BME280;35729;52.090;13.162;2022-12-11T09:57:45;100520.63;;;-3.09;84.54
49835;BME280;35729;52.090;13.162;2022-12-11T10:00:25;100518.78;;;-3.14;85.15
49835;BME280;35729;52.090;13.162;2022-12-11T10:05:54;100510.97;;;-3.18;84.94
49835;BME280;35729;52.090;13.162;2022-12-11T10:08:30;100509.22;;;-3.19;85.36
49835;BME280;35729;52.090;13.162;2022-12-11T10:11:07;100519.47;;;-3.19;85.93
49835;BME280;35729;52.090;13.162;2022-12-11T10:13:48;100508.31;;;-3.20;86.80
49835;BME280;35729;52.090;13.162;2022-12-11T10:16:32;100514.38;;;-3.18;87.18
49835;BME280;35729;52.090;13.162;2022-12-11T10:19:03;100512.75;;;-3.16;87.54
49835;BME280;35729;52.090;13.162;2022-12-11T10:21:37;100513.56;;;-3.17;87.65
49835;BME280;35729;52.090;13.162;2022-12-11T10:24:13;100519.56;;;-3.16;88.16
49835;BME280;35729;52.090;13.162;2022-12-11T10:26:44;100511.84;;;-3.16;88.52
49835;BME280;35729;52.090;13.162;2022-12-11T10:29:14;100507.66;;;-3.14;88.88
49835;BME280;35729;52.090;13.162;2022-12-11T10:31:49;100506.84;;;-3.13;88.64
49835;BME280;35729;52.090;13.162;2022-12-11T10:34:27;100496.56;;;-3.13;88.19
49835;BME280;35729;52.090;13.162;2022-12-11T10:36:57;100505.13;;;-3.13;88.67
49835;BME280;35729;52.090;13.162;2022-12-11T10:39:26;100504.25;;;-3.13;88.38
49835;BME280;35729;52.090;13.162;2022-12-11T10:41:55;100509.47;;;-3.10;88.78
49835;BME280;35729;52.090;13.162;2022-12-11T10:44:25;100495.78;;;-3.11;88.34
49835;BME280;35729;52.090;13.162;2022-12-11T10:47:05;100491.56;;;-3.08;88.30
49835;BME280;35729;52.090;13.162;2022-12-11T10:49:35;100491.56;;;-3.08;88.19
49835;BME280;35729;52.090;13.162;2022-12-11T10:52:09;100491.66;;;-3.05;88.52
49835;BME280;35729;52.090;13.162;2022-12-11T10:54:45;100484.78;;;-3.06;87.98
49835;BME280;35729;52.090;13.162;2022-12-11T10:57:15;100485.69;;;-3.04;88.34
49835;BME280;35729;52.090;13.162;2022-12-11T10:59:54;100483.22;;;-3.01;89.21
49835;BME280;35729;52.090;13.162;2022-12-11T11:02:26;100486.72;;;-2.99;88.78
49835;BME280;35729;52.090;13.162;2022-12-11T11:04:57;100484.13;;;-2.99;87.94
49835;BME280;35729;52.090;13.162;2022-12-11T11:07:27;100484.13;;;-2.99;87.16
49835;BME280;35729;52.090;13.162;2022-12-11T11:10:12;100481.56;;;-2.99;86.90
49835;BME280;35729;52.090;13.162;2022-12-11T11:12:43;100473.84;;;-3.01;85.69
49835;BME280;35729;52.090;13.162;2022-12-11T11:15:14;100474.59;;;-3.03;86.72
49835;BME280;35729;52.090;13.162;2022-12-11T11:17:47;100481.38;;;-3.05;87.33
49835;BME280;35729;52.090;13.162;2022-12-11T11:20:18;100478.88;;;-3.04;87.17
49835;BME280;35729;52.090;13.162;2022-12-11T11:22:51;100471.00;;;-3.08;85.12
49835;BME280;35729;52.090;13.162;2022-12-11T11:25:21;100471.91;;;-3.08;86.71
49835;BME280;35729;52.090;13.162;2022-12-11T11:27:52;100465.84;;;-3.10;86.46
49835;BME280;35729;52.090;13.162;2022-12-11T11:30:24;100468.34;;;-3.13;86.19
49835;BME280;35729;52.090;13.162;2022-12-11T11:32:57;100464.94;;;-3.12;87.94
49835;BME280;35729;52.090;13.162;2022-12-11T11:35:29;100460.69;;;-3.12;87.07
49835;BME280;35729;52.090;13.162;2022-12-11T11:38:03;100455.53;;;-3.12;85.85
49835;BME280;35729;52.090;13.162;2022-12-11T11:40:36;100452.94;;;-3.13;86.14
49835;BME280;35729;52.090;13.162;2022-12-11T11:43:14;100451.88;;;-3.20;83.18
49835;BME280;35729;52.090;13.162;2022-12-11T11:45:50;100448.41;;;-3.22;86.20
49835;BME280;35729;52.090;13.162;2022-12-11T11:48:29;100445.84;;;-3.22;86.04
49835;BME280;35729;52.090;13.162;2022-12-11T11:51:12;100448.28;;;-3.25;82.79
49835;BME280;35729;52.090;13.162;2022-12-11T11:53:46;100443.91;;;-3.29;84.48
49835;BME280;35729;52.090;13.162;2022-12-11T11:56:21;100441.19;;;-3.34;83.81
49835;BME280;35729;52.090;13.162;2022-12-11T11:59:00;100438.59;;;-3.35;84.59
49835;BME280;35729;52.090;13.162;2022-12-11T12:01:30;100437.69;;;-3.37;84.47
49835;BME280;35729;52.090;13.162;2022-12-11T12:04:03;100444.47;;;-3.39;82.62
49835;BME280;35729;52.090;13.162;2022-12-11T12:06:43;100438.41;;;-3.41;84.96
49835;BME280;35729;52.090;13.162;2022-12-11T12:09:28;100449.66;;;-3.36;85.72
49835;BME280;35729;52.090;13.162;2022-12-11T12:12:10;100443.81;;;-3.32;86.53
49835;BME280;35729;52.090;13.162;2022-12-11T12:14:53;100444.75;;;-3.29;84.83
49835;BME280;35729;52.090;13.162;2022-12-11T12:17:31;100432.88;;;-3.27;85.36
49835;BME280;35729;52.090;13.162;2022-12-11T12:20:11;100442.34;;;-3.24;85.21
49835;BME280;35729;52.090;13.162;2022-12-11T12:22:52;100443.28;;;-3.22;83.93
49835;BME280;35729;52.090;13.162;2022-12-11T12:25:28;100445.72;;;-3.25;81.76
49835;BME280;35729;52.090;13.162;2022-12-11T12:28:04;100439.75;;;-3.25;84.62
49835;BME280;35729;52.090;13.162;2022-12-11T12:30:45;100432.03;;;-3.25;84.58
49835;BME280;35729;52.090;13.162;2022-12-11T12:33:27;100441.53;;;-3.23;84.09
49835;BME280;35729;52.090;13.162;2022-12-11T12:36:07;100439.88;;;-3.21;86.03
49835;BME280;35729;52.090;13.162;2022-12-11T12:38:45;100440.75;;;-3.20;85.70
49835;BME280;35729;52.090;13.162;2022-12-11T12:41:20;100448.50;;;-3.17;85.46
49835;BME280;35729;52.090;13.162;2022-12-11T12:44:02;100435.69;;;-3.17;83.79
49835;BME280;35729;52.090;13.162;2022-12-11T12:46:44;100437.31;;;-3.21;83.17
49835;BME280;35729;52.090;13.162;2022-12-11T12:49:17;100439.81;;;-3.22;84.65
49835;BME280;35729;52.090;13.162;2022-12-11T12:51:50;100430.34;;;-3.25;84.67
49835;BME280;35729;52.090;13.162;2022-12-11T12:54:19;100431.28;;;-3.21;84.97
49835;BME280;35729;52.090;13.162;2022-12-11T12:56:48;100430.44;;;-3.22;84.17
49835;BME280;35729;52.090;13.162;2022-12-11T12:59:19;100439.75;;;-3.25;82.23
49835;BME280;35729;52.090;13.162;2022-12-11T13:01:49;100438.00;;;-3.27;82.31
49835;BME280;35729;52.090;13.162;2022-12-11T13:04:28;100434.47;;;-3.30;82.94
49835;BME280;35729;52.090;13.162;2022-12-11T13:07:15;100435.25;;;-3.33;82.27